Shifnal, United Kingdom
Current Conditions -  °F | °C
As of 6:50 PM on Friday 21 Nov 2014 (Local Time) from EGOS Reporting Station
Moderate Rain Moderate Rain  
Wind Chill: 41°   Ceiling: 800
Heat Index: 46°   Visibility: 1.5mi
Dew Point: 45°   Wind: 13mph
Humidity: 93%   Direction: 120°ESE
Pressure: 29.88"   Gusts: NA
Location:  52.67°N, 2.37°W
Report Text: EGOS 211850Z AUTO 12011KT 2400 RA OVC008/// 08/07 Q1012
Loading
Personal Weather Stations






























Interactive Weather Map New forecast layout! Learn more

10-Day Weather Forecast

Advertisements
Track Severe Weather on mobile